createdAt,value
2022-09-05T00:02:01.718Z,18.04
2022-09-05T00:07:59.134Z,17.96
2022-09-05T00:13:27.124Z,17.98
2022-09-05T00:24:18.944Z,17.94
2022-09-05T00:25:14.911Z,18.27
2022-09-05T00:31:53.729Z,18.32
2022-09-05T00:37:05.520Z,18.02
2022-09-05T00:42:27.345Z,17.85
2022-09-05T00:47:57.111Z,18.07
2022-09-05T00:53:26.176Z,17.63
2022-09-05T00:59:15.701Z,17.63
2022-09-05T01:04:56.210Z,17.43
2022-09-05T01:10:33.684Z,17.37
2022-09-05T01:16:30.083Z,17.61
2022-09-05T01:22:34.738Z,17.74
2022-09-05T01:29:17.249Z,17.73
2022-09-05T01:34:31.742Z,17.81
2022-09-05T01:40:14.798Z,17.42
2022-09-05T01:45:50.846Z,17.61
2022-09-05T01:51:29.067Z,17.13
2022-09-05T01:57:44.664Z,17.20
2022-09-05T02:03:33.460Z,16.78
2022-09-05T02:09:19.701Z,16.85
2022-09-05T02:14:54.457Z,16.74
2022-09-05T02:20:24.465Z,16.76
2022-09-05T02:26:01.229Z,16.56
2022-09-05T02:31:40.537Z,16.91
2022-09-05T02:38:31.721Z,16.91
2022-09-05T02:45:09.111Z,16.75
2022-09-05T02:51:20.114Z,16.52
2022-09-05T02:57:34.737Z,16.35
2022-09-05T03:00:52.178Z,16.43
2022-09-05T03:06:34.837Z,16.62
2022-09-05T03:12:28.584Z,16.70
2022-09-05T03:18:21.123Z,17.12
2022-09-05T03:24:06.708Z,17.19
2022-09-05T03:29:58.820Z,17.23
2022-09-05T03:36:13.928Z,17.17
2022-09-05T03:42:25.909Z,16.80
2022-09-05T03:48:28.149Z,16.63
2022-09-05T03:57:12.689Z,16.78
2022-09-05T04:00:08.310Z,16.82
2022-09-05T04:08:23.831Z,16.79
2022-09-05T04:11:29.850Z,16.72
2022-09-05T04:17:00.862Z,16.72
2022-09-05T04:22:26.861Z,16.76
2022-09-05T04:28:14.246Z,16.73
2022-09-05T04:33:57.515Z,16.84
2022-09-05T04:39:19.182Z,16.88
2022-09-05T04:44:47.699Z,16.48
2022-09-05T04:50:23.667Z,16.33
2022-09-05T04:55:51.671Z,16.17
2022-09-05T05:06:03.585Z,16.23
2022-09-05T05:07:18.699Z,16.38
2022-09-05T05:18:03.730Z,16.47
2022-09-05T05:18:59.635Z,16.46
2022-09-05T05:24:33.730Z,16.44
2022-09-05T05:30:06.713Z,16.42
2022-09-05T05:35:32.024Z,16.39
2022-09-05T05:41:32.816Z,16.56
2022-09-05T05:47:03.535Z,16.70
2022-09-05T05:52:54.632Z,16.55
2022-09-05T05:58:53.383Z,16.74
2022-09-05T06:04:45.103Z,16.69
2022-09-05T06:15:00.480Z,16.55
2022-09-05T06:16:40.035Z,16.57
2022-09-05T06:22:31.115Z,16.71
2022-09-05T06:28:18.482Z,16.79
2022-09-05T06:34:02.971Z,16.80
2022-09-05T06:39:40.966Z,16.89
2022-09-05T06:45:39.209Z,16.97
2022-09-05T06:51:45.280Z,17.14
2022-09-05T06:57:19.988Z,17.27
2022-09-05T07:03:08.943Z,17.51
2022-09-05T07:08:48.017Z,17.73
2022-09-05T07:14:28.345Z,17.85
2022-09-05T07:19:59.464Z,18.00
2022-09-05T07:25:31.624Z,17.93
2022-09-05T07:31:27.709Z,18.09
2022-09-05T07:37:15.562Z,18.28
2022-09-05T07:42:45.799Z,18.41
2022-09-05T07:48:34.350Z,18.43
2022-09-05T07:56:49.149Z,18.58
2022-09-05T07:59:57.018Z,18.61
2022-09-05T08:05:34.220Z,18.77
2022-09-05T08:11:23.566Z,18.81
2022-09-05T08:16:48.022Z,18.93
2022-09-05T08:22:20.154Z,19.07
2022-09-05T08:28:07.006Z,19.16
2022-09-05T08:33:34.585Z,19.27
2022-09-05T08:39:00.662Z,19.36
2022-09-05T08:46:40.232Z,19.41
2022-09-05T08:50:55.124Z,19.55
2022-09-05T08:56:24.079Z,19.75
2022-09-05T09:02:44.583Z,19.84
2022-09-05T09:08:24.190Z,19.96
2022-09-05T09:13:54.563Z,20.18
2022-09-05T09:19:29.570Z,20.32
2022-09-05T09:25:15.940Z,20.38
2022-09-05T09:30:43.175Z,20.58
2022-09-05T09:36:21.932Z,20.64
2022-09-05T09:42:02.190Z,20.87
2022-09-05T09:48:00.941Z,21.01
2022-09-05T09:53:40.391Z,21.12
2022-09-05T09:59:23.663Z,21.39
2022-09-05T10:10:33.315Z,21.64
2022-09-05T10:11:52.092Z,21.88
2022-09-05T10:17:20.190Z,22.07
2022-09-05T10:22:50.864Z,22.25
2022-09-05T10:28:45.123Z,22.35
2022-09-05T10:35:14.463Z,22.48
2022-09-05T10:40:14.563Z,22.65
2022-09-05T10:45:58.130Z,22.76
2022-09-05T10:51:30.776Z,22.86
2022-09-05T10:57:07.010Z,22.76
2022-09-05T11:02:38.418Z,22.88
2022-09-05T11:08:13.770Z,22.86
2022-09-05T11:13:46.045Z,23.04
2022-09-05T11:19:34.037Z,23.08
2022-09-05T11:24:59.761Z,23.15
2022-09-05T11:30:30.236Z,23.26
2022-09-05T11:40:04.817Z,23.45
2022-09-05T11:42:15.814Z,23.55
2022-09-05T11:48:03.997Z,23.64
2022-09-05T11:53:43.313Z,23.77
2022-09-05T11:59:15.615Z,23.94
2022-09-05T12:05:48.291Z,24.28
2022-09-05T12:11:52.041Z,24.51
2022-09-05T12:17:52.354Z,24.60
2022-09-05T12:23:38.472Z,24.60
2022-09-05T12:29:27.477Z,24.58
2022-09-05T12:36:11.452Z,24.62
2022-09-05T12:41:37.514Z,24.72
2022-09-05T12:46:46.744Z,24.87
2022-09-05T12:52:22.356Z,24.78
2022-09-05T13:02:57.033Z,24.91
2022-09-05T13:03:31.563Z,24.85
2022-09-05T13:09:01.828Z,24.84
2022-09-05T13:15:07.997Z,24.81
2022-09-05T13:20:35.676Z,24.89
2022-09-05T13:26:05.679Z,25.05
2022-09-05T13:38:01.125Z,24.96
2022-09-05T13:38:30.860Z,25.02
2022-09-05T13:43:38.760Z,25.08
2022-09-05T13:49:29.787Z,25.15
2022-09-05T13:55:08.946Z,25.14
2022-09-05T14:00:39.620Z,24.88
2022-09-05T14:06:46.476Z,24.79
2022-09-05T14:12:06.311Z,25.21
2022-09-05T14:17:51.211Z,25.41
2022-09-05T14:23:15.495Z,25.52
2022-09-05T14:28:46.792Z,25.66
2022-09-05T14:37:43.228Z,25.46
2022-09-05T14:40:51.896Z,25.29
2022-09-05T14:46:17.682Z,25.36
2022-09-05T14:51:39.592Z,25.40
2022-09-05T15:00:47.412Z,25.43
2022-09-05T15:03:04.194Z,25.39
2022-09-05T15:10:23.943Z,25.52
2022-09-05T15:14:12.263Z,25.54
2022-09-05T15:20:06.097Z,25.49
2022-09-05T15:25:30.902Z,25.40
2022-09-05T15:31:00.209Z,25.43
2022-09-05T15:36:32.664Z,25.47
2022-09-05T15:41:56.019Z,25.44
2022-09-05T15:47:24.243Z,25.47
2022-09-05T15:52:54.887Z,25.41
2022-09-05T15:58:18.983Z,25.34
2022-09-05T16:08:32.797Z,25.28
2022-09-05T16:10:41.442Z,25.33
2022-09-05T16:20:51.017Z,25.36
2022-09-05T16:23:27.787Z,25.28
2022-09-05T16:26:59.071Z,25.15
2022-09-05T16:32:28.430Z,24.96
2022-09-05T16:38:05.375Z,24.85
2022-09-05T16:43:33.145Z,24.74
2022-09-05T16:49:18.497Z,24.66
2022-09-05T16:55:20.922Z,24.55
2022-09-05T17:00:51.758Z,24.50
2022-09-05T17:06:35.771Z,24.48
2022-09-05T17:12:06.979Z,24.45
2022-09-05T17:18:21.278Z,24.44
2022-09-05T17:28:29.972Z,24.42
2022-09-05T17:36:03.331Z,24.31
2022-09-05T17:41:43.202Z,24.21
2022-09-05T17:47:10.127Z,24.15
2022-09-05T17:52:56.551Z,24.03
2022-09-05T17:58:21.175Z,23.92
2022-09-05T18:03:44.890Z,23.84
2022-09-05T18:09:31.182Z,23.77
2022-09-05T18:14:53.869Z,23.71
2022-09-05T18:21:21.545Z,23.67
2022-09-05T18:26:44.713Z,23.56
2022-09-05T18:32:10.875Z,23.50
2022-09-05T18:37:35.670Z,23.46
2022-09-05T18:43:10.313Z,23.41
2022-09-05T18:48:42.616Z,23.34
2022-09-05T18:54:20.345Z,23.28
2022-09-05T18:59:56.584Z,23.24
2022-09-05T19:05:43.139Z,23.16
2022-09-05T19:11:26.911Z,23.09
2022-09-05T19:16:50.775Z,23.04
2022-09-05T19:23:08.143Z,22.96
2022-09-05T19:30:35.914Z,22.93
2022-09-05T19:37:13.087Z,22.78
2022-09-05T19:43:42.796Z,22.74
2022-09-05T19:47:48.946Z,22.60
2022-09-05T19:50:57.109Z,22.54
2022-09-05T19:56:21.080Z,22.49
2022-09-05T20:01:44.438Z,22.44
2022-09-05T20:07:22.038Z,22.37
2022-09-05T20:12:44.189Z,22.36
2022-09-05T20:18:18.000Z,22.25
2022-09-05T20:23:51.817Z,22.19
2022-09-05T20:29:38.869Z,22.18
2022-09-05T20:41:05.321Z,22.08
2022-09-05T20:43:19.345Z,22.00
2022-09-05T20:52:38.110Z,21.92
2022-09-05T20:54:27.282Z,21.87
2022-09-05T20:58:39.386Z,21.74
2022-09-05T21:04:03.967Z,21.72
2022-09-05T21:09:29.302Z,21.64
2022-09-05T21:15:08.078Z,21.65
2022-09-05T21:20:57.423Z,21.66
2022-09-05T21:26:25.603Z,21.55
2022-09-05T21:31:54.505Z,21.52
2022-09-05T21:37:19.548Z,21.39
2022-09-05T21:47:33.924Z,21.40
2022-09-05T21:48:24.355Z,21.32
2022-09-05T21:59:17.233Z,21.34
2022-09-05T21:59:45.420Z,21.29
2022-09-05T22:05:08.545Z,21.18
2022-09-05T22:10:41.601Z,21.12
2022-09-05T22:16:14.653Z,21.05
2022-09-05T22:21:39.421Z,20.96
2022-09-05T22:27:12.489Z,20.85
2022-09-05T22:32:35.529Z,20.84
2022-09-05T22:38:12.430Z,20.78
2022-09-05T22:43:36.008Z,20.75
2022-09-05T22:48:57.736Z,20.65
2022-09-05T22:54:19.470Z,20.62
2022-09-05T22:59:41.231Z,20.59
2022-09-05T23:05:04.700Z,20.60
2022-09-05T23:10:27.799Z,20.62
2022-09-05T23:15:50.694Z,20.56
2022-09-05T23:21:14.531Z,20.56
2022-09-05T23:26:36.263Z,20.56
2022-09-05T23:31:58.044Z,20.58
2022-09-05T23:37:19.779Z,20.62
2022-09-05T23:42:41.664Z,20.50
2022-09-05T23:48:03.712Z,20.43
2022-09-05T23:53:25.594Z,20.12
2022-09-05T23:58:47.348Z,20.18
